createdAt,value
2022-09-22T00:02:09.705Z,99280.56
2022-09-22T00:07:13.138Z,99281.50
2022-09-22T00:12:17.337Z,99280.56
2022-09-22T00:17:23.270Z,99278.41
2022-09-22T00:22:26.018Z,99270.03
2022-09-22T00:27:30.217Z,99279.13
2022-09-22T00:32:32.929Z,99275.72
2022-09-22T00:37:35.614Z,99274.94
2022-09-22T00:42:39.754Z,99274.28
2022-09-22T00:47:44.747Z,99273.97
2022-09-22T00:52:50.100Z,99272.34
2022-09-22T00:57:54.997Z,99267.13
2022-09-22T01:03:00.137Z,99270.00
2022-09-22T01:08:04.538Z,99258.00
2022-09-22T01:13:22.607Z,99255.56
2022-09-22T01:18:34.114Z,99252.38
2022-09-22T01:24:13.570Z,99258.88
2022-09-22T01:29:38.855Z,99251.44
2022-09-22T01:34:48.681Z,99250.50
2022-09-22T01:39:55.753Z,99245.44
2022-09-22T01:45:04.087Z,99251.97
2022-09-22T01:50:13.830Z,99250.50
2022-09-22T01:55:21.543Z,99244.66
2022-09-22T02:00:24.406Z,99248.34
2022-09-22T02:05:34.213Z,99246.00
2022-09-22T02:10:42.038Z,99243.44
2022-09-22T02:16:03.044Z,99240.78
2022-09-22T02:21:07.327Z,99236.75
2022-09-22T02:26:11.794Z,99235.34
2022-09-22T02:31:20.786Z,99230.75
2022-09-22T02:36:39.725Z,99223.25
2022-09-22T02:41:57.765Z,99214.91
2022-09-22T02:47:05.114Z,99216.84
2022-09-22T02:52:11.739Z,99209.94
2022-09-22T02:57:14.514Z,99209.59
2022-09-22T03:02:17.312Z,99200.69
2022-09-22T03:07:21.739Z,99202.56
2022-09-22T03:12:24.542Z,99196.72
2022-09-22T03:17:27.213Z,99192.47
2022-09-22T03:22:31.314Z,99199.88
2022-09-22T03:27:34.015Z,99192.06
2022-09-22T03:32:37.185Z,99191.50
2022-09-22T03:37:41.223Z,99182.09
2022-09-22T03:42:43.881Z,99192.50
2022-09-22T03:47:47.110Z,99191.84
2022-09-22T03:52:51.145Z,99187.81
2022-09-22T03:57:53.826Z,99191.47
2022-09-22T04:02:57.870Z,99181.19
2022-09-22T04:08:02.389Z,99185.63
2022-09-22T04:13:05.099Z,99184.75
2022-09-22T04:18:07.872Z,99174.44
2022-09-22T04:23:12.076Z,99178.06
2022-09-22T04:28:14.743Z,99180.88
2022-09-22T04:38:46.453Z,99190.84
2022-09-22T04:43:49.142Z,99181.44
2022-09-22T04:48:51.827Z,99180.44
2022-09-22T04:53:55.954Z,99188.66
2022-09-22T04:58:58.643Z,99179.16
2022-09-22T05:04:01.496Z,99180.72
2022-09-22T05:09:06.529Z,99180.81
2022-09-22T05:14:09.381Z,99180.25
2022-09-22T05:19:12.249Z,99182.88
2022-09-22T05:24:16.296Z,99181.16
2022-09-22T05:29:18.974Z,99190.69
2022-09-22T05:34:21.651Z,99191.44
2022-09-22T05:39:25.669Z,99194.69
2022-09-22T05:44:28.349Z,99193.47
2022-09-22T05:49:31.055Z,99185.16
2022-09-22T05:54:35.711Z,99192.25
2022-09-22T05:59:38.371Z,99196.63
2022-09-22T06:04:41.057Z,99200.69
2022-09-22T06:09:45.347Z,99199.38
2022-09-22T06:14:48.043Z,99198.59
2022-09-22T06:19:50.816Z,99196.81
2022-09-22T06:24:54.835Z,99196.16
2022-09-22T06:29:59.450Z,99198.69
2022-09-22T06:35:02.541Z,99191.75
2022-09-22T06:40:11.054Z,99195.31
2022-09-22T06:45:16.058Z,99196.16
2022-09-22T06:50:19.465Z,99190.41
2022-09-22T06:55:23.540Z,99189.78
2022-09-22T07:00:28.582Z,99189.34
2022-09-22T07:05:31.256Z,99183.75
2022-09-22T07:10:38.515Z,99181.63
2022-09-22T07:15:41.527Z,99182.00
2022-09-22T07:20:45.829Z,99177.88
2022-09-22T07:25:56.387Z,99186.16
2022-09-22T07:31:06.060Z,99180.34
2022-09-22T07:36:12.356Z,99194.22
2022-09-22T07:41:19.321Z,99192.47
2022-09-22T07:46:22.577Z,99191.97
2022-09-22T07:51:27.441Z,99188.88
2022-09-22T07:56:33.542Z,99185.66
2022-09-22T08:01:36.973Z,99183.63
2022-09-22T08:06:40.607Z,99182.91
2022-09-22T08:11:48.622Z,99186.09
2022-09-22T08:16:53.376Z,99185.75
2022-09-22T08:21:56.391Z,99180.38
2022-09-22T08:27:00.421Z,99176.50
2022-09-22T08:32:03.934Z,99178.41
2022-09-22T08:37:06.646Z,99182.59
2022-09-22T08:42:20.667Z,99181.41
2022-09-22T08:47:51.036Z,99184.16
2022-09-22T08:52:59.653Z,99189.00
2022-09-22T08:58:09.115Z,99182.00
2022-09-22T09:03:27.663Z,99192.31
2022-09-22T09:09:07.206Z,99193.63
2022-09-22T09:14:24.150Z,99188.47
2022-09-22T09:19:35.059Z,99190.94
2022-09-22T09:30:15.359Z,99177.91
2022-09-22T09:35:24.060Z,99179.59
2022-09-22T09:40:27.661Z,99170.69
2022-09-22T09:45:38.411Z,99162.63
2022-09-22T09:50:41.153Z,99165.69
2022-09-22T09:55:44.179Z,99168.06
2022-09-22T10:01:00.633Z,99154.84
2022-09-22T10:06:06.252Z,99142.41
2022-09-22T10:11:10.642Z,99155.91
2022-09-22T10:16:25.118Z,99141.88
2022-09-22T10:21:29.658Z,99136.56
2022-09-22T10:26:34.367Z,99135.81
2022-09-22T10:31:38.895Z,99128.81
2022-09-22T10:36:45.896Z,99127.22
2022-09-22T10:41:50.060Z,99119.53
2022-09-22T10:47:13.498Z,99114.19
2022-09-22T10:52:21.701Z,99108.81
2022-09-22T10:57:58.309Z,99100.25
2022-09-22T11:03:37.178Z,99109.59
2022-09-22T11:09:06.479Z,99102.09
2022-09-22T11:14:22.693Z,99095.81
2022-09-22T11:19:39.001Z,99093.69
2022-09-22T11:24:55.710Z,99090.16
2022-09-22T11:30:16.765Z,99092.09
2022-09-22T11:35:56.435Z,99082.25
2022-09-22T11:41:18.580Z,99072.31
2022-09-22T11:46:28.391Z,99071.00
2022-09-22T11:51:45.435Z,99061.25
2022-09-22T11:56:52.890Z,99061.72
2022-09-22T12:01:58.284Z,99054.72
2022-09-22T12:07:03.863Z,99050.34
2022-09-22T12:12:15.774Z,99037.03
2022-09-22T12:17:24.330Z,99033.53
2022-09-22T12:22:33.094Z,99039.28
2022-09-22T12:27:37.887Z,99026.31
2022-09-22T12:32:45.820Z,99021.41
2022-09-22T12:37:48.661Z,99021.25
2022-09-22T12:42:54.478Z,99007.16
2022-09-22T12:47:59.428Z,99009.41
2022-09-22T12:53:10.388Z,99004.97
2022-09-22T12:58:43.717Z,98991.75
2022-09-22T13:03:51.929Z,98985.66
2022-09-22T13:09:21.312Z,98993.72
2022-09-22T13:15:01.294Z,98978.09
2022-09-22T13:20:16.250Z,98976.88
2022-09-22T13:25:30.013Z,98970.28
2022-09-22T13:30:33.222Z,98973.75
2022-09-22T13:35:39.841Z,98962.25
2022-09-22T13:40:47.257Z,98959.41
2022-09-22T13:45:51.461Z,98960.91
2022-09-22T13:51:00.407Z,98952.59
2022-09-22T13:56:03.753Z,98949.88
2022-09-22T14:01:16.913Z,98939.75
2022-09-22T14:06:22.937Z,98928.13
2022-09-22T14:11:51.347Z,98927.19
2022-09-22T14:16:59.365Z,98926.19
2022-09-22T14:22:05.767Z,98926.44
2022-09-22T14:27:14.914Z,98912.53
2022-09-22T14:32:24.399Z,98899.72
2022-09-22T14:37:34.311Z,98905.03
2022-09-22T14:42:37.197Z,98907.25
2022-09-22T14:47:40.639Z,98902.03
2022-09-22T14:52:52.922Z,98900.31
2022-09-22T14:57:56.425Z,98896.47
2022-09-22T15:02:59.910Z,98886.84
2022-09-22T15:08:04.002Z,98886.31
2022-09-22T15:13:28.090Z,98890.00
2022-09-22T15:18:31.310Z,98878.38
2022-09-22T15:23:41.013Z,98870.28
2022-09-22T15:28:47.628Z,98874.31
2022-09-22T15:33:50.363Z,98878.03
2022-09-22T15:38:59.540Z,98871.41
2022-09-22T15:44:02.958Z,98877.44
2022-09-22T15:49:11.903Z,98872.06
2022-09-22T15:54:18.496Z,98862.97
2022-09-22T15:59:24.463Z,98860.34
2022-09-22T16:04:30.002Z,98853.69
2022-09-22T16:09:34.294Z,98853.28
2022-09-22T16:14:37.190Z,98842.81
2022-09-22T16:19:39.859Z,98849.41
2022-09-22T16:24:44.281Z,98848.06
2022-09-22T16:29:47.054Z,98846.25
2022-09-22T16:34:49.743Z,98851.88
2022-09-22T16:39:53.767Z,98851.00
2022-09-22T16:44:56.867Z,98852.06
2022-09-22T16:50:00.824Z,98844.38
2022-09-22T16:55:06.740Z,98841.38
2022-09-22T17:00:12.049Z,98840.97
2022-09-22T17:05:15.208Z,98838.56
2022-09-22T17:10:20.067Z,98838.25
2022-09-22T17:15:22.749Z,98832.50
2022-09-22T17:20:25.481Z,98840.28
2022-09-22T17:25:29.556Z,98836.78
2022-09-22T17:30:32.309Z,98839.13
2022-09-22T17:35:35.131Z,98833.00
2022-09-22T17:40:42.586Z,98842.50
2022-09-22T17:45:45.400Z,98838.88
2022-09-22T17:51:07.961Z,98838.84
2022-09-22T17:56:13.197Z,98844.63
2022-09-22T18:01:16.051Z,98848.75
2022-09-22T18:06:20.036Z,98852.50
2022-09-22T18:11:27.777Z,98849.63
2022-09-22T18:16:33.229Z,98847.84
2022-09-22T18:21:39.231Z,98851.13
2022-09-22T18:26:43.367Z,98843.13
2022-09-22T18:31:46.311Z,98850.19
2022-09-22T18:36:49.050Z,98853.28
2022-09-22T18:41:55.554Z,98860.72
2022-09-22T18:47:02.038Z,98853.84
2022-09-22T18:52:04.857Z,98869.22
2022-09-22T18:57:10.498Z,98865.97
2022-09-22T19:02:13.272Z,98863.94
2022-09-22T19:07:36.542Z,98862.25
2022-09-22T19:12:43.457Z,98867.84
2022-09-22T19:17:49.230Z,98867.25
2022-09-22T19:22:53.686Z,98867.03
2022-09-22T19:27:57.789Z,98861.69
2022-09-22T19:33:01.152Z,98875.22
2022-09-22T19:38:05.137Z,98869.13
2022-09-22T19:43:09.206Z,98868.88
2022-09-22T19:48:14.213Z,98861.72
2022-09-22T19:53:16.957Z,98866.88
2022-09-22T19:58:21.063Z,98862.50
2022-09-22T20:03:23.850Z,98865.72
2022-09-22T20:08:27.169Z,98863.72
2022-09-22T20:13:49.095Z,98864.16
2022-09-22T20:18:51.929Z,98858.34
2022-09-22T20:23:55.219Z,98848.97
2022-09-22T20:28:59.959Z,98840.69
2022-09-22T20:34:02.718Z,98834.97
2022-09-22T20:39:06.263Z,98838.81
2022-09-22T20:44:15.237Z,98843.00
2022-09-22T20:49:19.449Z,98839.97
2022-09-22T20:54:24.313Z,98844.22
2022-09-22T20:59:28.537Z,98841.38
2022-09-22T21:04:31.820Z,98839.38
2022-09-22T21:09:52.089Z,98831.53
2022-09-22T21:14:56.415Z,98830.06
2022-09-22T21:19:59.119Z,98829.84
2022-09-22T21:25:03.167Z,98825.34
2022-09-22T21:30:09.266Z,98824.75
2022-09-22T21:35:16.442Z,98825.81
2022-09-22T21:40:20.454Z,98812.53
2022-09-22T21:45:24.860Z,98809.25
2022-09-22T21:50:28.199Z,98812.44
2022-09-22T21:55:31.334Z,98804.03
2022-09-22T22:00:51.239Z,98799.91
2022-09-22T22:06:00.717Z,98792.38
2022-09-22T22:11:05.208Z,98794.72
2022-09-22T22:16:11.367Z,98796.84
2022-09-22T22:21:16.276Z,98785.06
2022-09-22T22:26:21.916Z,98794.47
2022-09-22T22:31:26.085Z,98782.50
2022-09-22T22:36:28.991Z,98784.59
2022-09-22T22:41:35.871Z,98782.28
2022-09-22T22:46:40.478Z,98781.75
2022-09-22T22:51:44.090Z,98781.19
2022-09-22T22:56:50.747Z,98778.13
2022-09-22T23:01:55.430Z,98772.38
2022-09-22T23:06:58.189Z,98766.59
2022-09-22T23:12:00.987Z,98758.44
2022-09-22T23:17:05.179Z,98761.38
2022-09-22T23:22:07.869Z,98759.34
2022-09-22T23:27:10.726Z,98752.66
2022-09-22T23:32:15.449Z,98755.50
2022-09-22T23:37:19.699Z,98751.44
2022-09-22T23:42:24.421Z,98758.97
2022-09-22T23:47:28.622Z,98757.28
2022-09-22T23:52:31.369Z,98760.97
2022-09-22T23:57:34.048Z,98752.47
